Česky Dansk Deutsch English Español Suomi Français Magyar Italiano Nederlands norsk Polski Português svenska Türkçe

 

Het Weer

Tarija (Bolivië)

22:00, 13 août 2016 (GMT)

NWNNE
WE
SWSSE
Home            
Tarija La Quiaca Observatorio Yacuiba Villamontes Tartagal Aerodrome Oran Aerodrome Camiri Potosi Sucre Nueva Asuncion Jujuy Aerodrome Rivadavia Salta Aerodrome Mariscal Estigarribia Santa Cruz / El Trompillo Viru-Viru Oruro Cochabamba Las Lomitas Iquique / Diego Arac San Jose De Chiquitos Tucuman Aerodrome Antofagasta

Om een weerknop op uw website of weblog te plaatsen, copieer onderstaande code en plak die in uw pagina. In het eerste vakje staat HTML-code, in het tweede vakje UBB-code.


Add to Google

Details

Wind speed:3 bf, 8 kn, 4.1 m/s, 9.2 miles/h, 14.8 km/h
Wind direction:SE, 130°
Näkyvyys:Supérieure à 10000 m, 10 km, 32800 ft, 6.2 miles
Température:23°C, 73°F
Température ressentie:25°C, 77°F
Point de rosée:8°C, 46°F
Pression atmosphérique:1014 hPa, 760.6 mmHg, 29.94 inHg, 1.001 atm
Humidité relative:38.2 %
METAR:SLTJ 132200Z 13008KT 9999 NSC 23/08 Q1014

Snelkoppelingen

Actuele weersinformatie van de hele wereld. Voeg locaties toe met het plus (+) symbool. Deze snelkoppelingen kunnen worden toegevoegd aan Google.

Lid van de Technetium groep

website free tracking
StatCounter NetStat W3C Validator

21-01-2021 02:18:34
astro.technetium.be money.technetium.be phote.technetium.be tafeltennistafel.technetium.be www.ligfiets.net